createdAt,value
2022-10-11T00:00:54.236Z,6.15
2022-10-11T00:03:33.388Z,6.00
2022-10-11T00:06:11.650Z,5.40
2022-10-11T00:08:49.787Z,5.95
2022-10-11T00:11:28.018Z,5.85
2022-10-11T00:14:07.237Z,6.43
2022-10-11T00:16:45.955Z,5.63
2022-10-11T00:19:24.221Z,6.50
2022-10-11T00:22:02.392Z,6.35
2022-10-11T00:24:40.594Z,8.18
2022-10-11T00:27:19.350Z,7.03
2022-10-11T00:29:58.956Z,6.55
2022-10-11T00:32:38.376Z,6.85
2022-10-11T00:35:16.922Z,6.45
2022-10-11T00:37:57.205Z,6.82
2022-10-11T00:40:36.392Z,5.70
2022-10-11T00:43:20.191Z,6.97
2022-10-11T00:45:58.994Z,6.63
2022-10-11T00:48:56.280Z,6.47
2022-10-11T00:51:55.064Z,6.40
2022-10-11T00:54:36.353Z,6.18
2022-10-11T00:57:20.436Z,5.68
2022-10-11T01:00:00.475Z,6.50
2022-10-11T01:02:40.341Z,7.80
2022-10-11T01:05:29.657Z,6.63
2022-10-11T01:08:09.027Z,7.70
2022-10-11T01:10:47.038Z,7.43
2022-10-11T01:13:40.112Z,7.43
2022-10-11T01:16:40.608Z,7.72
2022-10-11T01:19:52.816Z,8.23
2022-10-11T01:23:04.285Z,7.95
2022-10-11T01:25:43.563Z,7.90
2022-10-11T01:28:43.455Z,8.13
2022-10-11T01:31:27.118Z,7.85
2022-10-11T01:34:32.135Z,8.13
2022-10-11T01:37:41.264Z,6.97
2022-10-11T01:40:33.300Z,8.50
2022-10-11T01:43:14.478Z,7.82
2022-10-11T01:45:54.833Z,7.70
2022-10-11T01:48:34.015Z,7.63
2022-10-11T01:51:12.107Z,8.18
2022-10-11T01:54:02.988Z,9.15
2022-10-11T01:56:50.279Z,11.10
2022-10-11T01:59:53.109Z,11.63
2022-10-11T02:02:58.631Z,13.10
2022-10-11T02:05:49.766Z,11.38
2022-10-11T02:09:08.181Z,11.05
2022-10-11T02:11:47.430Z,11.35
2022-10-11T02:14:31.810Z,11.50
2022-10-11T02:17:18.590Z,11.02
2022-10-11T02:19:57.722Z,11.93
2022-10-11T02:22:39.473Z,12.48
2022-10-11T02:25:25.261Z,14.27
2022-10-11T02:28:11.436Z,17.38
2022-10-11T02:30:52.181Z,14.18
2022-10-11T02:33:41.867Z,14.30
2022-10-11T02:36:33.068Z,12.15
2022-10-11T02:39:23.614Z,14.85
2022-10-11T02:42:06.822Z,14.55
2022-10-11T02:45:06.089Z,13.40
2022-10-11T02:47:45.523Z,13.52
2022-10-11T02:50:25.030Z,13.90
2022-10-11T02:53:04.959Z,13.35
2022-10-11T02:55:44.254Z,11.80
2022-10-11T02:58:24.377Z,10.52
2022-10-11T03:01:02.295Z,11.30
2022-10-11T03:03:52.347Z,11.63
2022-10-11T03:06:30.429Z,12.10
2022-10-11T03:09:08.833Z,11.10
2022-10-11T03:11:46.860Z,11.50
2022-10-11T03:14:25.289Z,12.25
2022-10-11T03:17:17.568Z,10.35
2022-10-11T03:20:02.259Z,10.48
2022-10-11T03:22:40.905Z,12.10
2022-10-11T03:25:18.767Z,10.30
2022-10-11T03:27:56.887Z,11.70
2022-10-11T03:30:35.087Z,11.30
2022-10-11T03:33:13.293Z,10.75
2022-10-11T03:35:51.503Z,11.23
2022-10-11T03:38:29.770Z,10.10
2022-10-11T03:41:07.953Z,9.50
2022-10-11T03:43:46.117Z,10.07
2022-10-11T03:46:25.334Z,10.15
2022-10-11T03:49:04.127Z,10.65
2022-10-11T03:51:42.348Z,9.43
2022-10-11T03:54:20.516Z,11.40
2022-10-11T03:56:58.752Z,11.45
2022-10-11T03:59:36.955Z,11.68
2022-10-11T04:02:15.374Z,11.43
2022-10-11T04:04:54.342Z,10.65
2022-10-11T04:07:33.838Z,11.32
2022-10-11T04:10:13.013Z,10.65
2022-10-11T04:12:51.154Z,11.55
2022-10-11T04:15:29.541Z,11.30
2022-10-11T04:18:08.146Z,11.57
2022-10-11T04:20:47.542Z,11.23
2022-10-11T04:23:25.596Z,12.77
2022-10-11T04:26:08.159Z,10.98
2022-10-11T04:28:46.985Z,11.48
2022-10-11T04:31:25.214Z,12.07
2022-10-11T04:34:03.228Z,11.38
2022-10-11T04:36:41.391Z,12.50
2022-10-11T04:39:19.688Z,12.80
2022-10-11T04:41:57.786Z,12.65
2022-10-11T04:44:37.193Z,12.48
2022-10-11T04:47:15.758Z,13.85
2022-10-11T04:49:54.061Z,13.07
2022-10-11T04:52:32.320Z,14.18
2022-10-11T04:55:11.544Z,13.85
2022-10-11T04:57:50.266Z,13.52
2022-10-11T05:00:28.611Z,13.43
2022-10-11T05:03:06.645Z,12.95
2022-10-11T05:05:45.113Z,14.60
2022-10-11T05:08:23.497Z,13.93
2022-10-11T05:11:15.615Z,14.30
2022-10-11T05:13:53.850Z,13.13
2022-10-11T05:16:32.142Z,14.20
2022-10-11T05:19:10.589Z,14.02
2022-10-11T05:21:48.620Z,14.07
2022-10-11T05:24:26.717Z,14.18
2022-10-11T05:27:04.851Z,15.45
2022-10-11T05:29:43.144Z,14.20
2022-10-11T05:32:21.391Z,13.95
2022-10-11T05:34:59.510Z,14.13
2022-10-11T05:37:37.757Z,12.80
2022-10-11T05:40:16.025Z,12.15
2022-10-11T05:42:54.149Z,12.63
2022-10-11T05:45:35.235Z,12.38
2022-10-11T05:48:26.928Z,12.35
2022-10-11T05:51:07.579Z,12.13
2022-10-11T05:53:46.974Z,12.43
2022-10-11T05:56:26.386Z,13.98
2022-10-11T05:59:05.081Z,15.23
2022-10-11T06:01:43.004Z,13.73
2022-10-11T06:04:21.121Z,13.98
2022-10-11T06:06:59.309Z,14.00
2022-10-11T06:09:37.637Z,14.07
2022-10-11T06:12:15.876Z,13.35
2022-10-11T06:15:11.663Z,14.70
2022-10-11T06:18:03.532Z,14.60
2022-10-11T06:21:00.533Z,14.85
2022-10-11T06:24:01.343Z,14.65
2022-10-11T06:26:57.596Z,15.48
2022-10-11T06:29:53.562Z,14.43
2022-10-11T06:32:49.224Z,14.30
2022-10-11T06:35:41.547Z,14.95
2022-10-11T06:38:42.346Z,14.25
2022-10-11T06:41:36.438Z,15.38
2022-10-11T06:44:34.923Z,13.88
2022-10-11T06:47:26.314Z,16.85
2022-10-11T06:50:40.748Z,17.20
2022-10-11T06:53:44.155Z,15.43
2022-10-11T06:56:36.429Z,17.05
2022-10-11T06:59:32.372Z,16.65
2022-10-11T07:02:24.525Z,17.63
2022-10-11T07:05:23.040Z,18.27
2022-10-11T07:08:17.403Z,18.83
2022-10-11T07:11:11.339Z,16.70
2022-10-11T07:14:08.126Z,18.58
2022-10-11T07:17:06.407Z,18.48
2022-10-11T07:20:14.372Z,17.48
2022-10-11T07:23:10.020Z,15.25
2022-10-11T07:26:02.576Z,14.88
2022-10-11T07:28:57.621Z,14.90
2022-10-11T07:32:09.243Z,14.43
2022-10-11T07:35:00.888Z,14.30
2022-10-11T07:38:08.813Z,14.00
2022-10-11T07:41:05.451Z,14.82
2022-10-11T07:44:09.882Z,14.73
2022-10-11T07:47:10.305Z,14.25
2022-10-11T07:50:07.352Z,13.57
2022-10-11T07:53:06.457Z,14.05
2022-10-11T07:56:02.756Z,12.57
2022-10-11T07:58:59.645Z,12.60
2022-10-11T08:01:51.930Z,12.55
2022-10-11T08:04:53.330Z,13.30
2022-10-11T08:07:48.945Z,12.60
2022-10-11T08:10:44.623Z,12.57
2022-10-11T08:13:40.268Z,13.95
2022-10-11T08:16:32.559Z,13.45
2022-10-11T08:19:28.702Z,12.57
2022-10-11T08:22:24.661Z,12.52
2022-10-11T08:25:16.752Z,11.60
2022-10-11T08:28:24.496Z,11.30
2022-10-11T08:31:26.276Z,11.77
2022-10-11T08:34:22.032Z,10.30
2022-10-11T08:37:14.493Z,10.98
2022-10-11T08:40:07.620Z,10.68
2022-10-11T08:43:13.643Z,9.80
2022-10-11T08:46:14.701Z,10.90
2022-10-11T08:49:09.814Z,11.35
2022-10-11T08:52:04.752Z,10.85
2022-10-11T08:55:05.625Z,10.73
2022-10-11T08:57:59.034Z,11.90
2022-10-11T09:00:58.022Z,10.98
2022-10-11T09:03:41.373Z,10.88
2022-10-11T09:06:49.385Z,10.93
2022-10-11T09:09:56.155Z,10.27
2022-10-11T09:13:02.577Z,11.02
2022-10-11T09:15:47.302Z,10.45
2022-10-11T09:18:52.313Z,10.95
2022-10-11T09:21:36.111Z,10.20
2022-10-11T09:24:03.339Z,10.35
2022-10-11T09:26:59.521Z,9.63
2022-10-11T09:29:43.476Z,10.43
2022-10-11T09:32:17.106Z,9.40
2022-10-11T09:34:44.473Z,9.82
2022-10-11T09:37:32.986Z,10.10
2022-10-11T09:40:21.040Z,9.63
2022-10-11T09:42:48.282Z,9.30
2022-10-11T09:45:19.652Z,9.48
2022-10-11T09:47:48.374Z,9.23
2022-10-11T09:50:30.748Z,9.07
2022-10-11T09:53:01.978Z,9.60
2022-10-11T09:55:53.471Z,8.77
2022-10-11T09:58:31.193Z,9.63
2022-10-11T10:01:10.084Z,9.13
2022-10-11T10:03:42.766Z,9.57
2022-10-11T10:06:27.641Z,8.93
2022-10-11T10:08:55.946Z,8.88
2022-10-11T10:11:23.156Z,8.30
2022-10-11T10:13:56.119Z,9.30
2022-10-11T10:16:32.308Z,8.60
2022-10-11T10:19:15.994Z,8.77
2022-10-11T10:21:49.661Z,9.93
2022-10-11T10:24:39.376Z,9.18
2022-10-11T10:27:23.204Z,9.20
2022-10-11T10:30:01.025Z,9.32
2022-10-11T10:32:48.613Z,8.43
2022-10-11T10:35:37.483Z,8.27
2022-10-11T10:38:10.491Z,8.10
2022-10-11T10:40:56.647Z,7.93
2022-10-11T10:43:27.832Z,7.13
2022-10-11T10:46:18.228Z,8.27
2022-10-11T10:49:52.043Z,8.57
2022-10-11T10:52:46.039Z,8.68
2022-10-11T10:55:25.406Z,8.25
2022-10-11T10:58:24.621Z,8.38
2022-10-11T11:01:20.999Z,8.68
2022-10-11T11:04:19.224Z,7.60
2022-10-11T11:06:54.940Z,9.02
2022-10-11T11:09:28.710Z,8.05
2022-10-11T11:12:10.542Z,8.93
2022-10-11T11:14:55.951Z,8.57
2022-10-11T11:17:51.001Z,8.25
2022-10-11T11:20:41.419Z,8.10
2022-10-11T11:23:31.585Z,9.05
2022-10-11T11:26:10.393Z,8.63
2022-10-11T11:29:08.683Z,17.63
2022-10-11T11:32:20.459Z,9.20
2022-10-11T11:34:58.466Z,7.75
2022-10-11T11:37:32.160Z,8.18
2022-10-11T11:40:03.178Z,8.70
2022-10-11T11:42:42.291Z,7.40
2022-10-11T11:45:44.339Z,7.88
2022-10-11T11:48:19.737Z,7.70
2022-10-11T11:51:03.826Z,8.65
2022-10-11T11:53:51.588Z,7.75
2022-10-11T11:56:49.766Z,8.27
2022-10-11T11:59:43.510Z,8.00
2022-10-11T12:02:35.320Z,8.20
2022-10-11T12:05:02.863Z,7.10
2022-10-11T12:07:30.324Z,7.75
2022-10-11T12:10:31.108Z,7.13
2022-10-11T12:13:10.374Z,8.23
2022-10-11T12:15:37.797Z,7.20
2022-10-11T12:18:14.728Z,7.65
2022-10-11T12:20:43.476Z,7.35
2022-10-11T12:23:29.058Z,7.75
2022-10-11T12:26:18.276Z,7.45
2022-10-11T12:29:00.547Z,7.75
2022-10-11T12:31:32.445Z,7.18
2022-10-11T12:34:16.438Z,7.50
2022-10-11T12:36:51.031Z,8.00
2022-10-11T12:39:21.075Z,7.97
2022-10-11T12:41:51.065Z,7.38
2022-10-11T12:44:29.011Z,8.15
2022-10-11T12:46:58.930Z,8.00
2022-10-11T12:49:29.183Z,8.48
2022-10-11T12:52:18.224Z,8.00
2022-10-11T12:55:24.298Z,9.20
2022-10-11T12:58:38.893Z,8.90
2022-10-11T13:01:11.783Z,9.82
2022-10-11T13:03:47.132Z,8.77
2022-10-11T13:06:33.742Z,8.52
2022-10-11T13:09:10.210Z,9.02
2022-10-11T13:11:47.208Z,9.07
2022-10-11T13:14:21.358Z,7.85
2022-10-11T13:17:02.718Z,9.32
2022-10-11T13:19:32.221Z,8.85
2022-10-11T13:22:03.168Z,8.40
2022-10-11T13:24:38.675Z,8.02
2022-10-11T13:27:07.673Z,9.70
2022-10-11T13:29:45.567Z,7.43
2022-10-11T13:32:25.193Z,7.50
2022-10-11T13:35:05.990Z,7.95
2022-10-11T13:37:44.342Z,8.40
2022-10-11T13:40:16.956Z,8.10
2022-10-11T13:42:45.083Z,8.00
2022-10-11T13:45:23.141Z,7.90
2022-10-11T13:47:52.257Z,8.20
2022-10-11T13:50:33.687Z,7.45
2022-10-11T13:53:10.011Z,8.48
2022-10-11T13:55:57.218Z,8.35
2022-10-11T13:58:34.338Z,8.13
2022-10-11T14:01:29.142Z,7.97
2022-10-11T14:04:05.048Z,7.40
2022-10-11T14:06:47.634Z,7.20
2022-10-11T14:09:26.284Z,8.40
2022-10-11T14:11:55.055Z,7.70
2022-10-11T14:14:34.382Z,8.07
2022-10-11T14:17:10.229Z,8.75
2022-10-11T14:19:38.222Z,8.75
2022-10-11T14:22:07.433Z,8.20
2022-10-11T14:24:34.730Z,7.68
2022-10-11T14:27:05.967Z,8.60
2022-10-11T14:29:36.094Z,8.52
2022-10-11T14:32:10.756Z,8.00
2022-10-11T14:34:38.329Z,7.93
2022-10-11T14:37:05.716Z,7.25
2022-10-11T14:39:33.709Z,7.72
2022-10-11T14:42:01.036Z,7.65
2022-10-11T14:44:28.592Z,7.50
2022-10-11T14:46:55.887Z,7.65
2022-10-11T14:49:27.233Z,7.90
2022-10-11T14:51:56.199Z,7.35
2022-10-11T14:54:25.583Z,7.85
2022-10-11T14:56:56.252Z,9.25
2022-10-11T14:59:26.555Z,7.35
2022-10-11T15:01:54.397Z,7.28
2022-10-11T15:04:23.708Z,7.75
2022-10-11T15:06:52.403Z,7.65
2022-10-11T15:09:23.476Z,7.35
2022-10-11T15:11:52.003Z,8.15
2022-10-11T15:14:19.255Z,8.35
2022-10-11T15:16:46.653Z,8.52
2022-10-11T15:19:19.660Z,8.73
2022-10-11T15:21:47.502Z,8.25
2022-10-11T15:24:15.462Z,8.85
2022-10-11T15:26:42.828Z,8.40
2022-10-11T15:29:12.131Z,8.13
2022-10-11T15:31:39.857Z,8.05
2022-10-11T15:34:07.418Z,9.02
2022-10-11T15:36:34.781Z,9.02
2022-10-11T15:39:01.976Z,9.80
2022-10-11T15:41:29.616Z,8.40
2022-10-11T15:43:56.911Z,9.25
2022-10-11T15:46:24.319Z,8.77
2022-10-11T15:48:52.393Z,8.35
2022-10-11T15:51:19.871Z,8.98
2022-10-11T15:53:47.321Z,9.40
2022-10-11T15:56:18.774Z,9.43
2022-10-11T15:58:46.779Z,9.02
2022-10-11T16:01:19.674Z,8.93
2022-10-11T16:03:49.205Z,9.68
2022-10-11T16:06:17.316Z,9.38
2022-10-11T16:08:44.777Z,8.82
2022-10-11T16:11:12.742Z,9.07
2022-10-11T16:13:40.557Z,8.65
2022-10-11T16:16:09.781Z,8.95
2022-10-11T16:18:37.842Z,8.73
2022-10-11T16:21:10.940Z,9.50
2022-10-11T16:23:39.078Z,8.85
2022-10-11T16:26:10.025Z,8.73
2022-10-11T16:28:38.118Z,8.75
2022-10-11T16:31:10.466Z,8.98
2022-10-11T16:33:46.124Z,8.98
2022-10-11T16:36:34.892Z,9.02
2022-10-11T16:39:06.988Z,8.77
2022-10-11T16:41:34.282Z,9.05
2022-10-11T16:44:01.548Z,8.52
2022-10-11T16:46:28.844Z,8.35
2022-10-11T16:48:56.330Z,8.98
2022-10-11T16:51:24.431Z,8.32
2022-10-11T16:53:53.244Z,8.55
2022-10-11T16:56:22.735Z,8.55
2022-10-11T16:58:50.583Z,8.65
2022-10-11T17:01:17.935Z,8.45
2022-10-11T17:03:45.318Z,9.02
2022-10-11T17:06:12.710Z,7.70
2022-10-11T17:08:40.061Z,8.13
2022-10-11T17:11:07.405Z,8.23
2022-10-11T17:13:34.779Z,8.65
2022-10-11T17:16:02.452Z,8.68
2022-10-11T17:18:31.721Z,8.27
2022-10-11T17:21:04.228Z,7.88
2022-10-11T17:23:31.637Z,7.45
2022-10-11T17:26:01.587Z,7.75
2022-10-11T17:28:31.134Z,9.35
2022-10-11T17:30:58.700Z,8.90
2022-10-11T17:33:26.838Z,9.70
2022-10-11T17:35:55.199Z,8.52
2022-10-11T17:38:26.621Z,8.95
2022-10-11T17:41:01.514Z,8.45
2022-10-11T17:43:29.023Z,8.57
2022-10-11T17:46:01.507Z,8.82
2022-10-11T17:48:29.341Z,9.38
2022-10-11T17:50:56.729Z,8.30
2022-10-11T17:53:24.104Z,8.88
2022-10-11T17:55:53.484Z,8.20
2022-10-11T17:58:20.673Z,10.63
2022-10-11T18:00:47.997Z,10.80
2022-10-11T18:03:15.291Z,10.60
2022-10-11T18:05:42.550Z,11.68
2022-10-11T18:08:11.190Z,10.65
2022-10-11T18:10:38.661Z,9.63
2022-10-11T18:13:06.962Z,10.98
2022-10-11T18:15:35.185Z,8.90
2022-10-11T18:18:04.971Z,10.18
2022-10-11T18:20:32.401Z,11.07
2022-10-11T18:23:00.416Z,13.35
2022-10-11T18:25:27.669Z,12.18
2022-10-11T18:27:54.900Z,10.13
2022-10-11T18:30:22.292Z,11.32
2022-10-11T18:32:49.507Z,11.38
2022-10-11T18:35:16.885Z,12.60
2022-10-11T18:37:44.118Z,10.85
2022-10-11T18:40:11.606Z,10.50
2022-10-11T18:42:38.867Z,9.48
2022-10-11T18:45:06.869Z,9.43
2022-10-11T18:47:34.081Z,8.93
2022-10-11T18:50:01.340Z,8.93
2022-10-11T18:52:28.562Z,8.68
2022-10-11T18:54:55.920Z,10.70
2022-10-11T18:57:24.432Z,12.02
2022-10-11T18:59:52.612Z,15.00
2022-10-11T19:02:19.870Z,13.80
2022-10-11T19:04:52.585Z,10.10
2022-10-11T19:07:20.266Z,9.32
2022-10-11T19:09:47.561Z,9.35
2022-10-11T19:12:15.621Z,9.07
2022-10-11T19:14:42.972Z,9.27
2022-10-11T19:17:12.426Z,9.45
2022-10-11T19:19:39.755Z,9.55
2022-10-11T19:22:07.044Z,9.82
2022-10-11T19:24:34.311Z,8.60
2022-10-11T19:27:03.090Z,10.30
2022-10-11T19:29:30.670Z,10.65
2022-10-11T19:32:01.002Z,11.88
2022-10-11T19:34:28.798Z,10.23
2022-10-11T19:36:57.119Z,10.30
2022-10-11T19:39:25.641Z,10.82
2022-10-11T19:41:53.010Z,12.02
2022-10-11T19:44:20.758Z,12.15
2022-10-11T19:46:52.394Z,11.90
2022-10-11T19:49:22.802Z,10.93
2022-10-11T19:51:50.461Z,11.10
2022-10-11T19:54:17.893Z,12.18
2022-10-11T19:56:45.235Z,10.63
2022-10-11T19:59:13.043Z,10.52
2022-10-11T20:01:41.451Z,11.80
2022-10-11T20:04:27.480Z,12.45
2022-10-11T20:06:59.029Z,11.15
2022-10-11T20:09:30.802Z,12.00
2022-10-11T20:11:58.848Z,10.30
2022-10-11T20:14:26.343Z,10.32
2022-10-11T20:16:53.850Z,10.20
2022-10-11T20:19:26.347Z,9.85
2022-10-11T20:21:55.177Z,8.70
2022-10-11T20:24:22.728Z,9.73
2022-10-11T20:26:49.898Z,17.88
2022-10-11T20:29:17.158Z,17.20
2022-10-11T20:31:44.439Z,29.20
2022-10-11T20:34:12.067Z,14.73
2022-10-11T20:36:39.480Z,11.25
2022-10-11T20:39:06.932Z,9.57
2022-10-11T20:41:37.313Z,9.40
2022-10-11T20:44:05.414Z,10.10
2022-10-11T20:46:35.270Z,8.90
2022-10-11T20:49:05.669Z,9.77
2022-10-11T20:51:35.268Z,8.68
2022-10-11T20:54:04.327Z,9.15
2022-10-11T20:56:32.214Z,8.50
2022-10-11T20:58:59.968Z,9.90
2022-10-11T21:01:32.895Z,10.82
2022-10-11T21:04:01.531Z,9.93
2022-10-11T21:06:30.231Z,10.23
2022-10-11T21:08:59.226Z,9.25
2022-10-11T21:11:27.438Z,9.07
2022-10-11T21:13:59.768Z,10.30
2022-10-11T21:16:27.480Z,9.57
2022-10-11T21:18:56.825Z,9.50
2022-10-11T21:21:25.019Z,9.98
2022-10-11T21:23:56.191Z,10.60
2022-10-11T21:26:23.783Z,9.83
2022-10-11T21:28:51.981Z,10.75
2022-10-11T21:31:20.856Z,10.02
2022-10-11T21:33:48.880Z,10.23
2022-10-11T21:36:21.408Z,10.48
2022-10-11T21:38:49.966Z,9.63
2022-10-11T21:41:20.166Z,10.15
2022-10-11T21:43:47.963Z,9.65
2022-10-11T21:46:18.777Z,9.55
2022-10-11T21:48:46.532Z,9.43
2022-10-11T21:51:30.183Z,9.88
2022-10-11T21:54:00.441Z,10.18
2022-10-11T21:56:28.501Z,10.48
2022-10-11T21:58:56.163Z,10.43
2022-10-11T22:01:24.036Z,9.35
2022-10-11T22:03:53.503Z,10.95
2022-10-11T22:06:21.483Z,11.00
2022-10-11T22:08:50.122Z,11.50
2022-10-11T22:11:17.654Z,9.90
2022-10-11T22:13:45.609Z,10.43
2022-10-11T22:16:13.958Z,11.38
2022-10-11T22:18:42.199Z,11.00
2022-10-11T22:21:16.023Z,10.93
2022-10-11T22:23:45.896Z,11.13
2022-10-11T22:26:25.705Z,10.68
2022-10-11T22:28:53.548Z,11.05
2022-10-11T22:31:21.843Z,11.38
2022-10-11T22:33:53.368Z,11.63
2022-10-11T22:36:20.803Z,11.77
2022-10-11T22:38:48.416Z,11.75
2022-10-11T22:41:15.822Z,12.07
2022-10-11T22:43:43.450Z,11.68
2022-10-11T22:46:11.004Z,12.13
2022-10-11T22:48:38.413Z,12.73
2022-10-11T22:51:06.121Z,11.95
2022-10-11T22:53:33.776Z,12.77
2022-10-11T22:56:01.078Z,12.68
2022-10-11T22:58:28.579Z,13.05
2022-10-11T23:00:55.793Z,12.00
2022-10-11T23:03:23.186Z,12.45
2022-10-11T23:05:57.878Z,13.10
2022-10-11T23:08:25.985Z,14.23
2022-10-11T23:10:53.570Z,12.75
2022-10-11T23:13:21.166Z,13.23
2022-10-11T23:15:48.720Z,13.13
2022-10-11T23:18:16.574Z,14.10
2022-10-11T23:20:44.121Z,13.80
2022-10-11T23:23:11.379Z,14.30
2022-10-11T23:25:38.679Z,12.88
2022-10-11T23:28:06.344Z,15.23
2022-10-11T23:30:33.710Z,14.95
2022-10-11T23:33:00.909Z,15.20
2022-10-11T23:35:28.192Z,16.17
2022-10-11T23:37:55.454Z,14.23
2022-10-11T23:40:22.684Z,15.90
2022-10-11T23:42:49.914Z,16.52
2022-10-11T23:45:17.206Z,15.73
2022-10-11T23:47:44.471Z,15.40
2022-10-11T23:50:11.823Z,17.02
2022-10-11T23:52:39.049Z,16.48
2022-10-11T23:55:06.683Z,16.73
2022-10-11T23:57:34.150Z,16.50
